sensor_id;sensor_type;location;lat;lon;timestamp;temperature;humidity
66710;DHT22;53624;0.000;0.000;2023-06-22T00:00:14;20.80;99.90
66710;DHT22;53624;0.000;0.000;2023-06-22T00:02:42;20.80;99.90
66710;DHT22;53624;0.000;0.000;2023-06-22T00:05:11;20.80;99.90
66710;DHT22;53624;0.000;0.000;2023-06-22T00:07:39;20.70;99.90
66710;DHT22;53624;0.000;0.000;2023-06-22T00:10:06;20.50;99.90
66710;DHT22;53624;0.000;0.000;2023-06-22T00:12:34;20.50;99.90
66710;DHT22;53624;0.000;0.000;2023-06-22T00:15:02;20.30;99.90
66710;DHT22;53624;0.000;0.000;2023-06-22T00:17:29;20.40;99.90
66710;DHT22;53624;0.000;0.000;2023-06-22T00:19:56;20.40;99.90
66710;DHT22;53624;0.000;0.000;2023-06-22T00:22:26;20.60;99.90
66710;DHT22;53624;0.000;0.000;2023-06-22T00:24:55;20.50;99.90
66710;DHT22;53624;0.000;0.000;2023-06-22T00:27:22;20.50;99.90
66710;DHT22;53624;0.000;0.000;2023-06-22T00:29:50;20.70;99.90
66710;DHT22;53624;0.000;0.000;2023-06-22T00:32:17;20.90;99.90
66710;DHT22;53624;0.000;0.000;2023-06-22T00:34:47;20.90;99.90
66710;DHT22;53624;0.000;0.000;2023-06-22T00:37:14;20.90;99.90
66710;DHT22;53624;0.000;0.000;2023-06-22T00:39:43;20.80;99.90
66710;DHT22;53624;0.000;0.000;2023-06-22T00:42:11;20.80;99.90
66710;DHT22;53624;0.000;0.000;2023-06-22T00:44:38;20.70;99.90
66710;DHT22;53624;0.000;0.000;2023-06-22T00:47:06;20.80;99.90
66710;DHT22;53624;0.000;0.000;2023-06-22T00:49:34;20.80;99.90
66710;DHT22;53624;0.000;0.000;2023-06-22T00:52:01;20.70;99.90
66710;DHT22;53624;0.000;0.000;2023-06-22T00:54:29;20.70;99.90
66710;DHT22;53624;0.000;0.000;2023-06-22T00:56:58;20.60;99.90
66710;DHT22;53624;0.000;0.000;2023-06-22T00:59:27;20.60;99.90
66710;DHT22;53624;0.000;0.000;2023-06-22T01:01:55;20.40;99.90
66710;DHT22;53624;0.000;0.000;2023-06-22T01:04:33;20.30;99.90
66710;DHT22;53624;0.000;0.000;2023-06-22T01:07:03;20.20;99.90
66710;DHT22;53624;0.000;0.000;2023-06-22T01:09:35;20.40;99.90
66710;DHT22;53624;0.000;0.000;2023-06-22T01:12:07;20.70;99.90
66710;DHT22;53624;0.000;0.000;2023-06-22T01:14:37;20.90;99.90
66710;DHT22;53624;0.000;0.000;2023-06-22T01:17:05;20.90;99.90
66710;DHT22;53624;0.000;0.000;2023-06-22T01:19:35;20.90;99.90
66710;DHT22;53624;0.000;0.000;2023-06-22T01:22:05;20.60;99.90
66710;DHT22;53624;0.000;0.000;2023-06-22T01:24:43;20.20;99.90
66710;DHT22;53624;0.000;0.000;2023-06-22T01:27:16;20.00;99.90
66710;DHT22;53624;0.000;0.000;2023-06-22T01:29:50;20.00;99.90
66710;DHT22;53624;0.000;0.000;2023-06-22T01:32:18;19.80;99.90
66710;DHT22;53624;0.000;0.000;2023-06-22T01:34:46;20.00;99.90
66710;DHT22;53624;0.000;0.000;2023-06-22T01:37:14;20.20;99.90
66710;DHT22;53624;0.000;0.000;2023-06-22T01:39:42;20.30;99.90
66710;DHT22;53624;0.000;0.000;2023-06-22T01:42:10;20.40;99.90
66710;DHT22;53624;0.000;0.000;2023-06-22T01:44:40;20.30;99.90
66710;DHT22;53624;0.000;0.000;2023-06-22T01:47:10;20.40;99.90
66710;DHT22;53624;0.000;0.000;2023-06-22T01:49:39;20.40;99.90
66710;DHT22;53624;0.000;0.000;2023-06-22T01:52:07;20.40;99.90
66710;DHT22;53624;0.000;0.000;2023-06-22T01:54:35;20.40;99.90
66710;DHT22;53624;0.000;0.000;2023-06-22T01:57:02;20.30;99.90
66710;DHT22;53624;0.000;0.000;2023-06-22T01:59:32;20.20;99.90
66710;DHT22;53624;0.000;0.000;2023-06-22T02:02:01;20.20;99.90
66710;DHT22;53624;0.000;0.000;2023-06-22T02:04:32;20.30;99.90
66710;DHT22;53624;0.000;0.000;2023-06-22T02:07:02;20.40;99.90
66710;DHT22;53624;0.000;0.000;2023-06-22T02:09:32;20.40;99.90
66710;DHT22;53624;0.000;0.000;2023-06-22T02:12:01;20.40;99.90
66710;DHT22;53624;0.000;0.000;2023-06-22T02:14:29;20.00;99.90
66710;DHT22;53624;0.000;0.000;2023-06-22T02:16:57;19.90;99.90
66710;DHT22;53624;0.000;0.000;2023-06-22T02:19:26;20.10;99.90
66710;DHT22;53624;0.000;0.000;2023-06-22T02:22:00;20.00;99.90
66710;DHT22;53624;0.000;0.000;2023-06-22T02:24:28;19.90;99.90
66710;DHT22;53624;0.000;0.000;2023-06-22T02:26:58;19.80;99.90
66710;DHT22;53624;0.000;0.000;2023-06-22T02:29:25;19.70;99.90
66710;DHT22;53624;0.000;0.000;2023-06-22T02:31:53;19.80;99.90
66710;DHT22;53624;0.000;0.000;2023-06-22T02:34:20;19.80;99.90
66710;DHT22;53624;0.000;0.000;2023-06-22T02:36:48;19.90;99.90
66710;DHT22;53624;0.000;0.000;2023-06-22T02:39:20;20.00;99.90
66710;DHT22;53624;0.000;0.000;2023-06-22T02:41:49;19.90;99.90
66710;DHT22;53624;0.000;0.000;2023-06-22T02:44:16;20.00;99.90
66710;DHT22;53624;0.000;0.000;2023-06-22T02:46:44;20.10;99.90
66710;DHT22;53624;0.000;0.000;2023-06-22T02:49:13;20.00;99.90
66710;DHT22;53624;0.000;0.000;2023-06-22T02:51:42;20.00;99.90
66710;DHT22;53624;0.000;0.000;2023-06-22T02:54:10;19.90;99.90
66710;DHT22;53624;0.000;0.000;2023-06-22T02:56:39;19.80;99.90
66710;DHT22;53624;0.000;0.000;2023-06-22T02:59:10;19.90;99.90
66710;DHT22;53624;0.000;0.000;2023-06-22T03:01:38;19.70;99.90
66710;DHT22;53624;0.000;0.000;2023-06-22T03:04:15;19.70;99.90
66710;DHT22;53624;0.000;0.000;2023-06-22T03:06:42;19.90;99.90
66710;DHT22;53624;0.000;0.000;2023-06-22T03:09:10;20.00;99.90
66710;DHT22;53624;0.000;0.000;2023-06-22T03:11:39;20.00;99.90
66710;DHT22;53624;0.000;0.000;2023-06-22T03:14:06;20.00;99.90
66710;DHT22;53624;0.000;0.000;2023-06-22T03:16:34;20.10;99.90
66710;DHT22;53624;0.000;0.000;2023-06-22T03:19:02;20.00;99.90
66710;DHT22;53624;0.000;0.000;2023-06-22T03:21:30;20.10;99.90
66710;DHT22;53624;0.000;0.000;2023-06-22T03:24:00;20.20;99.90
66710;DHT22;53624;0.000;0.000;2023-06-22T03:26:27;20.10;99.90
66710;DHT22;53624;0.000;0.000;2023-06-22T03:28:58;19.90;99.90
66710;DHT22;53624;0.000;0.000;2023-06-22T03:31:28;19.80;99.90
66710;DHT22;53624;0.000;0.000;2023-06-22T03:33:56;19.90;99.90
66710;DHT22;53624;0.000;0.000;2023-06-22T03:36:23;19.90;99.90
66710;DHT22;53624;0.000;0.000;2023-06-22T03:38:51;19.90;99.90
66710;DHT22;53624;0.000;0.000;2023-06-22T03:41:18;20.10;99.90
66710;DHT22;53624;0.000;0.000;2023-06-22T03:43:47;20.10;99.90
66710;DHT22;53624;0.000;0.000;2023-06-22T03:46:16;20.00;99.90
66710;DHT22;53624;0.000;0.000;2023-06-22T03:48:44;20.30;99.90
66710;DHT22;53624;0.000;0.000;2023-06-22T03:51:11;20.40;99.90
66710;DHT22;53624;0.000;0.000;2023-06-22T03:53:38;20.50;99.90
66710;DHT22;53624;0.000;0.000;2023-06-22T03:56:06;20.40;99.90
66710;DHT22;53624;0.000;0.000;2023-06-22T03:58:33;20.50;99.90
66710;DHT22;53624;0.000;0.000;2023-06-22T04:01:02;20.50;99.90
66710;DHT22;53624;0.000;0.000;2023-06-22T04:03:31;20.50;99.90
66710;DHT22;53624;0.000;0.000;2023-06-22T04:05:58;20.50;99.90
66710;DHT22;53624;0.000;0.000;2023-06-22T04:08:26;20.50;99.90
66710;DHT22;53624;0.000;0.000;2023-06-22T04:10:53;20.50;99.90
66710;DHT22;53624;0.000;0.000;2023-06-22T04:13:21;20.20;99.90
66710;DHT22;53624;0.000;0.000;2023-06-22T04:15:48;20.10;99.90
66710;DHT22;53624;0.000;0.000;2023-06-22T04:18:16;20.20;99.90
66710;DHT22;53624;0.000;0.000;2023-06-22T04:20:45;20.10;99.90
66710;DHT22;53624;0.000;0.000;2023-06-22T04:23:12;20.30;99.90
66710;DHT22;53624;0.000;0.000;2023-06-22T04:25:40;20.50;99.90
66710;DHT22;53624;0.000;0.000;2023-06-22T04:28:07;20.40;99.90
66710;DHT22;53624;0.000;0.000;2023-06-22T04:30:38;20.20;99.90
66710;DHT22;53624;0.000;0.000;2023-06-22T04:33:12;20.20;99.90
66710;DHT22;53624;0.000;0.000;2023-06-22T04:35:39;20.20;99.90
66710;DHT22;53624;0.000;0.000;2023-06-22T04:38:11;20.30;99.90
66710;DHT22;53624;0.000;0.000;2023-06-22T04:40:39;20.40;99.90
66710;DHT22;53624;0.000;0.000;2023-06-22T04:43:06;20.40;99.90
66710;DHT22;53624;0.000;0.000;2023-06-22T04:45:36;20.60;99.90
66710;DHT22;53624;0.000;0.000;2023-06-22T04:48:04;20.40;99.90
66710;DHT22;53624;0.000;0.000;2023-06-22T04:50:32;20.40;99.90
66710;DHT22;53624;0.000;0.000;2023-06-22T04:52:59;20.50;99.90
66710;DHT22;53624;0.000;0.000;2023-06-22T04:55:32;20.50;99.90
66710;DHT22;53624;0.000;0.000;2023-06-22T04:58:00;20.70;99.90
66710;DHT22;53624;0.000;0.000;2023-06-22T05:00:30;20.90;99.90
66710;DHT22;53624;0.000;0.000;2023-06-22T05:02:58;20.90;99.90
66710;DHT22;53624;0.000;0.000;2023-06-22T05:05:27;21.00;99.90
66710;DHT22;53624;0.000;0.000;2023-06-22T05:07:56;21.00;99.90
66710;DHT22;53624;0.000;0.000;2023-06-22T05:10:26;20.80;99.90
66710;DHT22;53624;0.000;0.000;2023-06-22T05:12:55;20.60;99.90
66710;DHT22;53624;0.000;0.000;2023-06-22T05:15:23;20.60;99.90
66710;DHT22;53624;0.000;0.000;2023-06-22T05:17:54;20.70;99.90
66710;DHT22;53624;0.000;0.000;2023-06-22T05:20:21;20.80;99.90
66710;DHT22;53624;0.000;0.000;2023-06-22T05:22:49;20.90;99.90
66710;DHT22;53624;0.000;0.000;2023-06-22T05:25:16;21.10;99.90
66710;DHT22;53624;0.000;0.000;2023-06-22T05:27:44;21.20;99.90
66710;DHT22;53624;0.000;0.000;2023-06-22T05:30:13;21.20;99.90
66710;DHT22;53624;0.000;0.000;2023-06-22T05:32:42;21.30;99.90
66710;DHT22;53624;0.000;0.000;2023-06-22T05:35:10;21.30;99.90
66710;DHT22;53624;0.000;0.000;2023-06-22T05:37:37;21.30;99.90
66710;DHT22;53624;0.000;0.000;2023-06-22T05:40:05;21.40;99.90
66710;DHT22;53624;0.000;0.000;2023-06-22T05:42:33;21.40;99.90
66710;DHT22;53624;0.000;0.000;2023-06-22T05:45:00;21.40;99.90
66710;DHT22;53624;0.000;0.000;2023-06-22T05:47:29;21.50;99.90
66710;DHT22;53624;0.000;0.000;2023-06-22T05:49:57;21.50;99.90
66710;DHT22;53624;0.000;0.000;2023-06-22T05:52:24;21.60;99.90
66710;DHT22;53624;0.000;0.000;2023-06-22T05:54:52;21.60;99.90
66710;DHT22;53624;0.000;0.000;2023-06-22T05:57:19;21.60;99.90
66710;DHT22;53624;0.000;0.000;2023-06-22T05:59:47;21.70;99.90
66710;DHT22;53624;0.000;0.000;2023-06-22T06:02:15;21.70;99.90
66710;DHT22;53624;0.000;0.000;2023-06-22T06:04:44;21.70;99.90
66710;DHT22;53624;0.000;0.000;2023-06-22T06:07:11;21.80;99.90
66710;DHT22;53624;0.000;0.000;2023-06-22T06:09:39;21.80;99.90
66710;DHT22;53624;0.000;0.000;2023-06-22T06:12:06;21.80;99.90
66710;DHT22;53624;0.000;0.000;2023-06-22T06:14:34;21.80;99.90
66710;DHT22;53624;0.000;0.000;2023-06-22T06:17:01;21.90;99.90
66710;DHT22;53624;0.000;0.000;2023-06-22T06:19:29;21.90;99.90
66710;DHT22;53624;0.000;0.000;2023-06-22T06:21:58;22.00;99.90
66710;DHT22;53624;0.000;0.000;2023-06-22T06:24:26;22.10;99.90
66710;DHT22;53624;0.000;0.000;2023-06-22T06:26:53;22.20;99.90
66710;DHT22;53624;0.000;0.000;2023-06-22T06:29:21;22.20;99.90
66710;DHT22;53624;0.000;0.000;2023-06-22T06:31:49;22.20;99.90
66710;DHT22;53624;0.000;0.000;2023-06-22T06:34:17;22.30;99.90
66710;DHT22;53624;0.000;0.000;2023-06-22T06:36:44;22.40;99.90
66710;DHT22;53624;0.000;0.000;2023-06-22T06:39:13;22.50;99.90
66710;DHT22;53624;0.000;0.000;2023-06-22T06:41:42;22.70;99.90
66710;DHT22;53624;0.000;0.000;2023-06-22T06:44:15;22.90;99.90
66710;DHT22;53624;0.000;0.000;2023-06-22T06:46:42;22.90;99.90
66710;DHT22;53624;0.000;0.000;2023-06-22T06:49:10;22.80;99.90
66710;DHT22;53624;0.000;0.000;2023-06-22T06:51:37;22.80;99.90
66710;DHT22;53624;0.000;0.000;2023-06-22T06:54:05;22.80;99.90
66710;DHT22;53624;0.000;0.000;2023-06-22T06:56:34;22.90;99.90
66710;DHT22;53624;0.000;0.000;2023-06-22T06:59:02;22.90;99.90
66710;DHT22;53624;0.000;0.000;2023-06-22T07:01:29;22.90;99.90
66710;DHT22;53624;0.000;0.000;2023-06-22T07:03:59;22.90;99.90
66710;DHT22;53624;0.000;0.000;2023-06-22T07:06:27;22.90;99.90
66710;DHT22;53624;0.000;0.000;2023-06-22T07:08:58;23.00;99.90
66710;DHT22;53624;0.000;0.000;2023-06-22T07:11:25;23.10;99.90
66710;DHT22;53624;0.000;0.000;2023-06-22T07:16:44;23.10;99.90
66710;DHT22;53624;0.000;0.000;2023-06-22T07:19:12;23.10;99.90
66710;DHT22;53624;0.000;0.000;2023-06-22T07:21:39;23.10;99.90
66710;DHT22;53624;0.000;0.000;2023-06-22T07:24:07;23.10;99.90
66710;DHT22;53624;0.000;0.000;2023-06-22T07:26:34;23.10;99.90
66710;DHT22;53624;0.000;0.000;2023-06-22T07:29:01;23.10;99.90
66710;DHT22;53624;0.000;0.000;2023-06-22T07:31:30;23.10;99.90
66710;DHT22;53624;0.000;0.000;2023-06-22T07:33:59;23.10;99.90
66710;DHT22;53624;0.000;0.000;2023-06-22T07:36:26;23.20;99.90
66710;DHT22;53624;0.000;0.000;2023-06-22T07:38:56;23.20;99.90
66710;DHT22;53624;0.000;0.000;2023-06-22T07:41:23;23.20;99.90
66710;DHT22;53624;0.000;0.000;2023-06-22T07:43:51;23.20;99.90
66710;DHT22;53624;0.000;0.000;2023-06-22T07:46:18;23.10;99.90
66710;DHT22;53624;0.000;0.000;2023-06-22T07:48:46;23.20;99.90
66710;DHT22;53624;0.000;0.000;2023-06-22T07:51:14;23.10;99.90
66710;DHT22;53624;0.000;0.000;2023-06-22T07:53:42;23.20;99.90
66710;DHT22;53624;0.000;0.000;2023-06-22T07:56:10;23.20;99.90
66710;DHT22;53624;0.000;0.000;2023-06-22T07:58:37;23.20;99.90
66710;DHT22;53624;0.000;0.000;2023-06-22T08:01:05;23.20;99.90
66710;DHT22;53624;0.000;0.000;2023-06-22T08:03:33;23.20;99.90
66710;DHT22;53624;0.000;0.000;2023-06-22T08:06:00;23.20;99.90
66710;DHT22;53624;0.000;0.000;2023-06-22T08:08:29;23.10;99.90
66710;DHT22;53624;0.000;0.000;2023-06-22T08:10:57;23.10;99.90
66710;DHT22;53624;0.000;0.000;2023-06-22T08:13:24;23.20;99.90
66710;DHT22;53624;0.000;0.000;2023-06-22T08:15:51;23.10;99.90
66710;DHT22;53624;0.000;0.000;2023-06-22T08:18:19;23.10;99.90
66710;DHT22;53624;0.000;0.000;2023-06-22T08:20:47;23.10;99.90
66710;DHT22;53624;0.000;0.000;2023-06-22T08:23:14;23.10;99.90
66710;DHT22;53624;0.000;0.000;2023-06-22T08:25:43;23.10;99.90
66710;DHT22;53624;0.000;0.000;2023-06-22T08:28:10;23.10;99.90
66710;DHT22;53624;0.000;0.000;2023-06-22T08:30:39;23.00;99.90
66710;DHT22;53624;0.000;0.000;2023-06-22T08:33:06;23.00;99.90
66710;DHT22;53624;0.000;0.000;2023-06-22T08:35:34;23.00;99.90
66710;DHT22;53624;0.000;0.000;2023-06-22T08:38:01;23.00;99.90
66710;DHT22;53624;0.000;0.000;2023-06-22T08:40:28;23.10;99.90
66710;DHT22;53624;0.000;0.000;2023-06-22T08:42:57;23.10;99.90
66710;DHT22;53624;0.000;0.000;2023-06-22T08:45:25;23.00;99.90
66710;DHT22;53624;0.000;0.000;2023-06-22T08:47:52;23.00;99.90
66710;DHT22;53624;0.000;0.000;2023-06-22T08:50:20;23.00;99.90
66710;DHT22;53624;0.000;0.000;2023-06-22T08:52:47;23.00;99.90
66710;DHT22;53624;0.000;0.000;2023-06-22T08:55:15;23.00;99.90
66710;DHT22;53624;0.000;0.000;2023-06-22T08:57:42;23.00;99.90
66710;DHT22;53624;0.000;0.000;2023-06-22T09:00:13;23.00;99.90
66710;DHT22;53624;0.000;0.000;2023-06-22T09:02:46;22.90;99.90
66710;DHT22;53624;0.000;0.000;2023-06-22T09:05:13;22.90;99.90
66710;DHT22;53624;0.000;0.000;2023-06-22T09:07:41;22.90;99.90
66710;DHT22;53624;0.000;0.000;2023-06-22T09:10:09;22.90;99.90
66710;DHT22;53624;0.000;0.000;2023-06-22T09:12:37;22.90;99.90
66710;DHT22;53624;0.000;0.000;2023-06-22T09:15:05;23.00;99.90
66710;DHT22;53624;0.000;0.000;2023-06-22T09:17:34;23.00;99.90
66710;DHT22;53624;0.000;0.000;2023-06-22T09:20:03;23.00;99.90
66710;DHT22;53624;0.000;0.000;2023-06-22T09:22:31;23.00;99.90
66710;DHT22;53624;0.000;0.000;2023-06-22T09:24:59;23.00;99.90
66710;DHT22;53624;0.000;0.000;2023-06-22T09:27:27;23.00;99.90
66710;DHT22;53624;0.000;0.000;2023-06-22T09:29:54;23.00;99.90
66710;DHT22;53624;0.000;0.000;2023-06-22T09:32:21;23.00;99.90
66710;DHT22;53624;0.000;0.000;2023-06-22T09:34:50;23.00;99.90
66710;DHT22;53624;0.000;0.000;2023-06-22T09:37:19;23.00;99.90
66710;DHT22;53624;0.000;0.000;2023-06-22T09:39:46;23.00;99.90
66710;DHT22;53624;0.000;0.000;2023-06-22T09:42:13;23.00;99.90
66710;DHT22;53624;0.000;0.000;2023-06-22T09:44:41;23.00;99.90
66710;DHT22;53624;0.000;0.000;2023-06-22T09:47:08;23.00;99.90
66710;DHT22;53624;0.000;0.000;2023-06-22T09:49:36;23.00;99.90
66710;DHT22;53624;0.000;0.000;2023-06-22T09:52:05;23.00;99.90
66710;DHT22;53624;0.000;0.000;2023-06-22T09:54:33;23.10;99.90
66710;DHT22;53624;0.000;0.000;2023-06-22T09:57:00;23.10;99.90
66710;DHT22;53624;0.000;0.000;2023-06-22T09:59:28;23.10;99.90
66710;DHT22;53624;0.000;0.000;2023-06-22T10:01:55;23.20;99.90
66710;DHT22;53624;0.000;0.000;2023-06-22T10:04:23;23.20;99.90
66710;DHT22;53624;0.000;0.000;2023-06-22T10:06:50;23.20;99.90
66710;DHT22;53624;0.000;0.000;2023-06-22T10:09:19;23.20;99.90
66710;DHT22;53624;0.000;0.000;2023-06-22T10:11:47;23.20;99.90
66710;DHT22;53624;0.000;0.000;2023-06-22T10:14:14;23.20;99.90
66710;DHT22;53624;0.000;0.000;2023-06-22T10:16:42;23.20;99.90
66710;DHT22;53624;0.000;0.000;2023-06-22T10:19:09;23.20;99.90
66710;DHT22;53624;0.000;0.000;2023-06-22T10:21:37;23.30;99.90
66710;DHT22;53624;0.000;0.000;2023-06-22T10:24:04;23.30;99.90
66710;DHT22;53624;0.000;0.000;2023-06-22T10:26:34;23.40;99.90
66710;DHT22;53624;0.000;0.000;2023-06-22T10:29:02;23.40;99.90
66710;DHT22;53624;0.000;0.000;2023-06-22T10:31:29;23.40;99.90
66710;DHT22;53624;0.000;0.000;2023-06-22T10:33:57;23.40;99.90
66710;DHT22;53624;0.000;0.000;2023-06-22T10:36:24;23.40;99.90
66710;DHT22;53624;0.000;0.000;2023-06-22T10:38:52;23.50;99.90
66710;DHT22;53624;0.000;0.000;2023-06-22T10:41:21;23.50;99.90
66710;DHT22;53624;0.000;0.000;2023-06-22T10:43:50;23.50;99.90
66710;DHT22;53624;0.000;0.000;2023-06-22T10:46:17;23.60;99.90
66710;DHT22;53624;0.000;0.000;2023-06-22T10:48:45;23.70;99.90
66710;DHT22;53624;0.000;0.000;2023-06-22T10:51:12;23.80;99.90
66710;DHT22;53624;0.000;0.000;2023-06-22T10:53:40;23.90;99.90
66710;DHT22;53624;0.000;0.000;2023-06-22T10:56:07;24.00;99.90
66710;DHT22;53624;0.000;0.000;2023-06-22T10:58:35;24.10;99.90
66710;DHT22;53624;0.000;0.000;2023-06-22T11:01:04;24.20;99.90
66710;DHT22;53624;0.000;0.000;2023-06-22T11:03:31;24.50;99.90
66710;DHT22;53624;0.000;0.000;2023-06-22T11:05:58;24.60;99.90
66710;DHT22;53624;0.000;0.000;2023-06-22T11:08:26;24.60;99.90
66710;DHT22;53624;0.000;0.000;2023-06-22T11:10:53;24.70;99.90
66710;DHT22;53624;0.000;0.000;2023-06-22T11:13:21;24.80;99.90
66710;DHT22;53624;0.000;0.000;2023-06-22T11:15:48;24.80;99.90
66710;DHT22;53624;0.000;0.000;2023-06-22T11:18:17;24.80;99.90
66710;DHT22;53624;0.000;0.000;2023-06-22T11:20:44;24.90;99.90
66710;DHT22;53624;0.000;0.000;2023-06-22T11:23:13;25.10;99.90
66710;DHT22;53624;0.000;0.000;2023-06-22T11:25:41;25.20;99.90
66710;DHT22;53624;0.000;0.000;2023-06-22T11:28:08;25.40;99.90
66710;DHT22;53624;0.000;0.000;2023-06-22T11:30:35;25.50;99.90
66710;DHT22;53624;0.000;0.000;2023-06-22T11:33:03;25.40;99.90
66710;DHT22;53624;0.000;0.000;2023-06-22T11:35:32;25.50;99.90
66710;DHT22;53624;0.000;0.000;2023-06-22T11:37:59;25.50;99.90
66710;DHT22;53624;0.000;0.000;2023-06-22T11:40:27;25.50;99.90
66710;DHT22;53624;0.000;0.000;2023-06-22T11:42:54;25.60;99.90
66710;DHT22;53624;0.000;0.000;2023-06-22T11:45:21;25.80;99.90
66710;DHT22;53624;0.000;0.000;2023-06-22T11:47:49;25.90;99.90
66710;DHT22;53624;0.000;0.000;2023-06-22T11:50:16;26.00;99.90
66710;DHT22;53624;0.000;0.000;2023-06-22T11:52:45;26.00;99.90
66710;DHT22;53624;0.000;0.000;2023-06-22T11:55:13;26.00;99.90
66710;DHT22;53624;0.000;0.000;2023-06-22T11:57:52;26.10;99.90
66710;DHT22;53624;0.000;0.000;2023-06-22T12:00:19;26.20;99.90
66710;DHT22;53624;0.000;0.000;2023-06-22T12:02:49;26.40;99.90
66710;DHT22;53624;0.000;0.000;2023-06-22T12:05:18;26.60;99.90
66710;DHT22;53624;0.000;0.000;2023-06-22T12:07:46;26.60;99.90
66710;DHT22;53624;0.000;0.000;2023-06-22T12:10:14;26.70;99.90
66710;DHT22;53624;0.000;0.000;2023-06-22T12:12:41;26.60;99.90
66710;DHT22;53624;0.000;0.000;2023-06-22T12:15:09;26.80;99.90
66710;DHT22;53624;0.000;0.000;2023-06-22T12:17:37;26.90;99.90
66710;DHT22;53624;0.000;0.000;2023-06-22T12:20:05;26.80;99.90
66710;DHT22;53624;0.000;0.000;2023-06-22T12:22:34;26.80;99.90
66710;DHT22;53624;0.000;0.000;2023-06-22T12:25:05;26.80;99.90
66710;DHT22;53624;0.000;0.000;2023-06-22T12:27:33;26.70;99.90
66710;DHT22;53624;0.000;0.000;2023-06-22T12:30:00;26.60;99.90
66710;DHT22;53624;0.000;0.000;2023-06-22T12:32:28;26.50;99.90
66710;DHT22;53624;0.000;0.000;2023-06-22T12:34:56;26.40;99.90
66710;DHT22;53624;0.000;0.000;2023-06-22T12:37:23;26.40;99.90
66710;DHT22;53624;0.000;0.000;2023-06-22T12:39:51;26.40;99.90
66710;DHT22;53624;0.000;0.000;2023-06-22T12:42:20;26.40;99.90
66710;DHT22;53624;0.000;0.000;2023-06-22T12:44:47;26.50;99.90
66710;DHT22;53624;0.000;0.000;2023-06-22T12:47:15;26.60;99.90
66710;DHT22;53624;0.000;0.000;2023-06-22T12:49:42;26.50;99.90
66710;DHT22;53624;0.000;0.000;2023-06-22T12:52:09;26.50;99.90
66710;DHT22;53624;0.000;0.000;2023-06-22T12:54:37;26.50;99.90
66710;DHT22;53624;0.000;0.000;2023-06-22T12:57:05;26.40;99.90
66710;DHT22;53624;0.000;0.000;2023-06-22T12:59:34;26.40;99.90
66710;DHT22;53624;0.000;0.000;2023-06-22T13:02:02;26.40;99.90
66710;DHT22;53624;0.000;0.000;2023-06-22T13:04:29;26.50;99.90
66710;DHT22;53624;0.000;0.000;2023-06-22T13:06:57;26.50;99.90
66710;DHT22;53624;0.000;0.000;2023-06-22T13:09:24;26.50;99.90
66710;DHT22;53624;0.000;0.000;2023-06-22T13:11:51;26.40;99.90
66710;DHT22;53624;0.000;0.000;2023-06-22T13:14:19;26.30;99.90
66710;DHT22;53624;0.000;0.000;2023-06-22T13:16:48;26.30;99.90
66710;DHT22;53624;0.000;0.000;2023-06-22T13:19:15;26.10;99.90
66710;DHT22;53624;0.000;0.000;2023-06-22T13:21:43;26.00;99.90
66710;DHT22;53624;0.000;0.000;2023-06-22T13:24:10;25.90;99.90
66710;DHT22;53624;0.000;0.000;2023-06-22T13:26:38;25.70;98.00
66710;DHT22;53624;0.000;0.000;2023-06-22T13:29:06;25.50;97.10
66710;DHT22;53624;0.000;0.000;2023-06-22T13:31:34;25.30;96.10
66710;DHT22;53624;0.000;0.000;2023-06-22T13:34:02;25.10;95.40
66710;DHT22;53624;0.000;0.000;2023-06-22T13:36:30;24.80;93.60
66710;DHT22;53624;0.000;0.000;2023-06-22T13:38:57;24.40;94.10
66710;DHT22;53624;0.000;0.000;2023-06-22T13:41:26;24.00;97.40
66710;DHT22;53624;0.000;0.000;2023-06-22T13:43:53;23.60;99.70
66710;DHT22;53624;0.000;0.000;2023-06-22T13:46:24;23.10;99.50
66710;DHT22;53624;0.000;0.000;2023-06-22T13:48:51;22.80;99.30
66710;DHT22;53624;0.000;0.000;2023-06-22T13:51:21;22.50;99.50
66710;DHT22;53624;0.000;0.000;2023-06-22T13:53:48;22.20;99.90
66710;DHT22;53624;0.000;0.000;2023-06-22T13:56:16;22.00;99.90
66710;DHT22;53624;0.000;0.000;2023-06-22T13:58:44;21.80;99.90
66710;DHT22;53624;0.000;0.000;2023-06-22T14:01:11;21.70;99.90
66710;DHT22;53624;0.000;0.000;2023-06-22T14:03:39;21.50;99.90
66710;DHT22;53624;0.000;0.000;2023-06-22T14:06:11;21.40;99.90
66710;DHT22;53624;0.000;0.000;2023-06-22T14:08:40;21.30;99.90
66710;DHT22;53624;0.000;0.000;2023-06-22T14:11:08;21.30;99.90
66710;DHT22;53624;0.000;0.000;2023-06-22T14:13:35;21.10;99.90
66710;DHT22;53624;0.000;0.000;2023-06-22T14:16:03;21.00;99.90
66710;DHT22;53624;0.000;0.000;2023-06-22T14:18:31;20.90;99.90
66710;DHT22;53624;0.000;0.000;2023-06-22T14:20:59;20.80;99.90
66710;DHT22;53624;0.000;0.000;2023-06-22T14:23:26;20.80;99.90
66710;DHT22;53624;0.000;0.000;2023-06-22T14:25:56;20.70;99.90
66710;DHT22;53624;0.000;0.000;2023-06-22T14:28:23;20.60;99.90
66710;DHT22;53624;0.000;0.000;2023-06-22T14:30:50;20.50;99.90
66710;DHT22;53624;0.000;0.000;2023-06-22T14:33:18;20.40;99.90
66710;DHT22;53624;0.000;0.000;2023-06-22T14:35:45;20.30;99.90
66710;DHT22;53624;0.000;0.000;2023-06-22T14:38:13;20.30;99.90
66710;DHT22;53624;0.000;0.000;2023-06-22T14:40:41;20.30;99.90
66710;DHT22;53624;0.000;0.000;2023-06-22T14:43:09;20.20;99.90
66710;DHT22;53624;0.000;0.000;2023-06-22T14:57:08;20.10;99.90
66710;DHT22;53624;0.000;0.000;2023-06-22T14:59:36;19.80;99.90
66710;DHT22;53624;0.000;0.000;2023-06-22T15:02:03;20.10;99.90
66710;DHT22;53624;0.000;0.000;2023-06-22T15:04:30;20.60;99.90
66710;DHT22;53624;0.000;0.000;2023-06-22T15:20:07;21.20;99.90
66710;DHT22;53624;0.000;0.000;2023-06-22T15:22:35;21.50;99.90
66710;DHT22;53624;0.000;0.000;2023-06-22T15:25:03;21.50;99.90
66710;DHT22;53624;0.000;0.000;2023-06-22T15:27:31;21.50;99.90
66710;DHT22;53624;0.000;0.000;2023-06-22T15:29:58;21.60;99.90
66710;DHT22;53624;0.000;0.000;2023-06-22T15:32:26;21.70;99.90
66710;DHT22;53624;0.000;0.000;2023-06-22T15:34:54;21.70;99.90
66710;DHT22;53624;0.000;0.000;2023-06-22T15:37:23;21.80;99.90
66710;DHT22;53624;0.000;0.000;2023-06-22T15:39:51;21.90;99.90
66710;DHT22;53624;0.000;0.000;2023-06-22T15:42:19;22.00;99.90
66710;DHT22;53624;0.000;0.000;2023-06-22T15:44:47;22.10;99.90
66710;DHT22;53624;0.000;0.000;2023-06-22T15:47:15;22.20;99.90
66710;DHT22;53624;0.000;0.000;2023-06-22T15:49:42;22.30;99.90
66710;DHT22;53624;0.000;0.000;2023-06-22T15:52:10;22.30;99.90
66710;DHT22;53624;0.000;0.000;2023-06-22T15:54:39;22.40;99.90
66710;DHT22;53624;0.000;0.000;2023-06-22T15:57:06;22.50;99.90
66710;DHT22;53624;0.000;0.000;2023-06-22T15:59:34;22.60;99.90
66710;DHT22;53624;0.000;0.000;2023-06-22T16:02:01;22.70;99.90
66710;DHT22;53624;0.000;0.000;2023-06-22T16:04:29;22.70;99.90
66710;DHT22;53624;0.000;0.000;2023-06-22T16:06:56;22.70;99.90
66710;DHT22;53624;0.000;0.000;2023-06-22T16:09:23;22.80;99.90
66710;DHT22;53624;0.000;0.000;2023-06-22T16:11:53;22.80;99.90
66710;DHT22;53624;0.000;0.000;2023-06-22T16:14:21;22.90;99.90
66710;DHT22;53624;0.000;0.000;2023-06-22T16:16:48;23.00;99.90